Saint Gertrude, North Dakota
Current Conditions -  °F | °C
As of 9:15 PM on Monday 22 Dec 2014 (Local Time) from KY19 Reporting Station
Light Snow Light Snow  
Wind Chill: 16°   Ceiling: 400
Heat Index: 28°   Visibility: 3mi
Dew Point: 28°   Wind: 17mph
Humidity: 100%   Direction: 340°NNW
Pressure: 29.74"   Gusts: 25mph
Location:  46.3317°N, 101.236°W
Report Text: KY19 230415Z AUTO 34015G22KT 3SM -SN OVC004 M02/M02 A2974 RMK AO2 P0002
Loading
Personal Weather Stations






























Interactive Weather Map New forecast layout! Learn more

10-Day Weather Forecast

Advertisements
Track Severe Weather on mobile